Latest Coastal Weather Observations for Hogan Island

IDT60701

Issued at 8:52 am EST Sunday 31 May 2015 (issued every 10 minutes, with the page automatically refreshed every 10 minutes)

About coastal observations | Map of coastal stations | Coastal observations for TAS | Marine services | Other Formats
Station Details ID: 200838 Name: HOGAN ISLAND Lat: -39.22 Lon: 146.98 Height: 116.0 m
Data from the previous 72 hours. | See also: Recent months at Hogan Island
Date/Time
EST
Temp

°C
Wind Pressure Rain
since 9am
mm
Weather Cloud Vis
km
Sea
Height
m
Swell
Dir
 
Speed
knots
Gust
knots
hPa Trend Height
m
Period
s
Dir
31/08:30am 11.8 WNW 41 51 1007.7 - 2.0 - - - - - - -
31/08:28am 11.8 WNW 41 51 1007.7 - 2.0 - - - - - - -
31/08:00am 12.2 WNW 37 44 1007.9 - 2.0 - - - - - - -
31/07:32am 12.0 WNW 41 51 1007.6 - 2.0 - - - - - - -
31/07:30am 12.0 WNW 41 47 1007.6 - 2.0 - - - - - - -
31/07:00am 12.1 WNW 42 47 1007.6 - 2.0 - - - - - - -
31/06:30am 12.2 WNW 44 49 1007.2 - 2.0 - - - - - - -
31/06:00am 12.2 WNW 42 49 1007.5 - 2.0 - - - - - - -
31/05:30am 12.0 WNW 44 51 1007.4 - 2.0 - - - - - - -
31/05:00am 12.2 WNW 41 48 1007.7 - 2.0 - - - - - - -
31/04:30am 12.1 WNW 36 42 1008.1 - 2.0 - - - - - - -
31/04:00am 12.5 WNW 39 45 1008.2 - 2.0 - - - - - - -
31/03:30am 12.4 WNW 37 43 1008.4 - 2.0 - - - - - - -
31/03:00am 12.3 WNW 34 40 1008.9 - 2.0 - - - - - - -
31/02:30am 12.3 WNW 35 40 1009.3 - 2.0 - - - - - - -
31/02:00am 12.6 WNW 34 41 1009.4 - 2.0 - - - - - - -
31/01:30am 12.5 WNW 35 41 1009.2 - 2.0 - - - - - - -
31/01:00am 12.6 WNW 34 41 1009.6 - 2.0 - - - - - - -
31/12:30am 13.0 WNW 35 46 1010.2 - 2.0 - - - - - - -
31/12:06am 12.9 WNW 34 44 1010.0 - 2.0 - - - - - - -
31/12:00am 12.9 WNW 35 40 1010.2 - 2.0 - - - - - - -
 
Date/Time
EST
Temp

°C
Wind Pressure Rain
since 9am
mm
Weather Cloud Vis
km
Sea
Height
m
Swell
Dir
 
Speed
knots
Gust
knots
hPa Trend Height
m
Period
s
Dir
30/11:30pm 13.0 WNW 37 45 1010.1 - 2.0 - - - - - - -
30/11:00pm 12.8 WNW 37 45 1010.3 - 2.0 - - - - - - -
30/10:30pm 12.8 WNW 38 44 1010.4 - 2.0 - - - - - - -
30/10:00pm 12.6 WNW 38 44 1010.7 - 2.0 - - - - - - -
30/09:30pm 12.1 WNW 35 43 1011.1 - 1.4 - - - - - - -
30/09:15pm 12.0 W 37 50 1010.7 - 0.8 - - - - - - -
30/09:00pm 12.5 WNW 38 47 1010.9 - 0.2 - - - - - - -
30/08:51pm 12.6 WNW 38 48 1011.1 - 0.2 - - - - - - -
30/08:30pm 13.0 WNW 41 47 1010.5 - 0.0 - - - - - - -
30/08:00pm 13.3 WNW 40 47 1011.0 - 0.0 - - - - - - -
30/07:30pm 13.3 WNW 40 46 1010.9 - 0.0 - - - - - - -
30/07:00pm 13.0 WNW 40 47 1011.2 - 0.0 - - - - - - -
30/06:30pm 12.9 WNW 40 47 1011.1 - 0.0 - - - - - - -
30/06:00pm 12.9 WNW 35 42 1011.6 - 0.0 - - - - - - -
30/05:30pm 12.8 WNW 35 44 1011.5 - 0.0 - - - - - - -
30/05:00pm 12.8 WNW 39 46 1011.0 - 0.0 - - - - - - -
30/04:30pm 13.1 WNW 37 43 1011.4 - 0.0 - - - - - - -
30/04:00pm 13.1 WNW 41 48 1010.9 - 0.0 - - - - - - -
30/03:30pm 13.2 WNW 42 50 1011.0 - 0.0 - - - - - - -
30/03:02pm 13.5 WNW 41 51 1010.9 - 0.0 - - - - - - -
30/03:00pm 13.6 WNW 40 47 1011.1 - 0.0 - - - - - - -
30/02:39pm 14.0 WNW 40 50 1011.1 - 0.0 - - - - - - -
30/02:30pm 13.6 WNW 42 50 1010.9 - 0.0 - - - - - - -
30/02:00pm 14.3 WNW 40 45 1011.4 - 0.0 - - - - - - -
30/01:30pm 13.5 WNW 35 41 1011.9 - 0.0 - - - - - - -
30/01:00pm 13.2 WNW 37 44 1012.1 - 0.0 - - - - - - -
30/12:30pm 13.5 WNW 41 46 1012.4 - 0.0 - - - - - - -
30/12:00pm 13.2 WNW 45 50 1012.2 - 0.0 - - - - - - -
30/11:30am 13.0 WNW 42 49 1013.1 - 0.0 - - - - - - -
30/11:00am 12.8 WNW 39 46 1014.1 - 0.0 - - - - - - -
30/10:30am 12.4 WNW 32 39 1015.0 - 0.0 - - - - - - -
30/10:00am 12.0 WNW 38 45 1015.2 - 0.0 - - - - - - -
30/09:30am 12.1 WNW 39 46 1015.0 - 0.0 - - - - - - -
30/09:00am 11.9 WNW 41 47 1015.2 - 2.2 - - - - - - -
30/08:30am 11.8 WNW 35 42 1015.8 - 2.2 - - - - - - -
30/08:16am 11.6 WNW 32 42 1015.7 - 2.2 - - - - - - -
30/08:00am 11.5 WNW 32 37 1016.0 - 2.2 - - - - - - -
30/07:30am 11.4 WNW 32 40 1016.0 - 2.2 - - - - - - -
30/07:00am 11.4 WNW 35 41 1015.7 - 2.2 - - - - - - -
30/06:30am 11.2 WNW 35 41 1015.8 - 2.2 - - - - - - -
30/06:00am 11.4 WNW 35 40 1015.9 - 2.2 - - - - - - -
30/05:30am 11.5 WNW 36 41 1015.9 - 2.2 - - - - - - -
30/05:00am 11.7 WNW 36 41 1016.1 - 2.2 - - - - - - -
30/04:30am 11.6 WNW 31 36 1016.3 - 2.2 - - - - - - -
30/04:00am 11.7 WNW 33 36 1016.5 - 2.2 - - - - - - -
30/03:30am 11.9 WNW 32 36 1016.7 - 2.2 - - - - - - -
30/03:00am 12.0 WNW 32 37 1017.0 - 2.2 - - - - - - -
30/02:30am 12.0 WNW 32 36 1017.3 - 2.2 - - - - - - -
30/02:00am 12.4 WNW 33 41 1017.5 - 2.2 - - - - - - -
30/01:30am 12.2 WNW 31 34 1017.9 - 2.2 - - - - - - -
30/01:00am 12.1 WNW 31 35 1018.2 - 2.2 - - - - - - -
30/12:30am 11.9 WNW 28 32 1018.5 - 2.2 - - - - - - -
30/12:00am 12.2 WNW 27 32 1019.0 - 2.2 - - - - - - -
 
Date/Time
EST
Temp

°C
Wind Pressure Rain
since 9am
mm
Weather Cloud Vis
km
Sea
Height
m
Swell
Dir
 
Speed
knots
Gust
knots
hPa Trend Height
m
Period
s
Dir
29/11:30pm 12.2 WNW 30 34 1018.9 - 2.2 - - - - - - -
29/11:00pm 12.1 WNW 26 31 1019.1 - 2.2 - - - - - - -
29/10:30pm 12.3 WNW 26 32 1019.1 - 2.2 - - - - - - -
29/10:00pm 12.3 WNW 29 35 1019.1 - 2.2 - - - - - - -
29/09:30pm 12.0 WNW 27 31 1019.2 - 2.2 - - - - - - -
29/09:00pm 11.6 WNW 28 34 1019.4 - 2.2 - - - - - - -
29/08:30pm 11.3 WNW 27 32 1019.3 - 2.2 - - - - - - -
29/08:00pm 11.6 WNW 31 37 1019.4 - 2.2 - - - - - - -
29/07:30pm 11.5 WNW 26 31 1019.4 - 2.2 - - - - - - -
29/07:00pm 10.5 WNW 20 23 1019.5 - 2.2 - - - - - - -
29/06:30pm 11.5 WNW 26 31 1019.1 - 1.4 - - - - - - -
29/06:00pm 11.3 WNW 27 32 1019.0 - 1.4 - - - - - - -
29/05:30pm 11.1 WNW 25 30 1018.9 - 1.4 - - - - - - -
29/05:00pm 10.4 WNW 32 38 1018.5 - 1.4 - - - - - - -
29/04:30pm 11.2 WNW 27 32 1018.3 - 0.8 - - - - - - -
29/04:00pm 11.1 W 25 29 1018.3 - 0.8 - - - - - - -
29/03:30pm 10.3 W 27 34 1018.4 - 0.4 - - - - - - -
29/03:16pm 11.9 WNW 28 38 1017.9 - 0.4 - - - - - - -
29/03:00pm 12.1 WNW 27 32 1018.1 - 0.4 - - - - - - -
29/02:37pm 11.9 WNW 23 33 1017.8 - 0.4 - - - - - - -
29/02:30pm 11.4 WNW 22 26 1018.0 - 0.4 - - - - - - -
29/02:08pm 10.6 W 28 38 1017.4 - 0.4 - - - - - - -
29/02:00pm 10.1 W 29 36 1017.7 - 0.4 - - - - - - -
29/01:30pm 11.2 WNW 27 32 1017.7 - 0.4 - - - - - - -
29/01:12pm 11.4 WNW 25 30 1017.8 - 0.4 - - - - - - -
29/01:00pm 12.1 W 25 29 1017.7 - 0.4 - - - - - - -
29/12:30pm 12.0 W 26 30 1018.0 - 0.4 - - - - - - -
29/12:00pm 12.1 W 27 32 1018.3 - 0.4 - - - - - - -
29/11:30am 12.0 W 30 36 1018.2 - 0.4 - - - - - - -
29/11:00am 12.1 W 26 31 1018.6 - 0.4 - - - - - - -
29/10:30am 10.9 W 28 33 1018.5 - 0.2 - - - - - - -
29/10:13am 9.8 W 31 41 1018.6 - 0.2 - - - - - - -
29/10:04am 10.3 W 37 41 1018.3 - 0.0 - - - - - - -
29/10:02am 10.7 WSW 25 37 1018.5 - 0.0 - - - - - - -
29/10:00am 10.7 WSW 24 28 1018.5 - 0.0 - - - - - - -
29/09:30am 11.9 W 28 33 1017.9 - 0.0 - - - - - - -
29/09:00am 12.0 W 33 39 1017.4 - 1.8 - - - - - - -
29/08:30am 11.7 W 33 38 1017.4 - 1.8 - - - - - - -
29/08:00am 11.8 W 31 37 1017.5 - 1.8 - - - - - - -
29/07:30am 12.1 W 35 42 1016.6 - 1.8 - - - - - - -
29/07:00am 11.7 W 37 44 1015.9 - 1.8 - - - - - - -
29/06:30am 11.2 W 35 41 1015.6 - 1.8 - - - - - - -
29/06:26am 11.4 W 37 47 1015.6 - 1.8 - - - - - - -
29/06:00am 11.4 W 40 48 1014.7 - 1.8 - - - - - - -
29/05:30am 11.8 W 38 47 1014.2 - 1.8 - - - - - - -
29/05:29am 12.0 W 37 47 1014.4 - 1.8 - - - - - - -
29/05:00am 11.4 W 35 43 1014.6 - 1.8 - - - - - - -
29/04:30am 11.5 W 34 41 1014.7 - 1.8 - - - - - - -
29/04:00am 11.8 W 38 44 1014.0 - 1.8 - - - - - - -
29/03:40am 11.6 W 37 47 1013.8 - 1.8 - - - - - - -
29/03:30am 11.1 W 38 44 1013.9 - 1.8 - - - - - - -
29/03:10am 12.1 W 39 50 1013.5 - 1.8 - - - - - - -
29/03:00am 12.3 W 37 45 1013.6 - 1.8 - - - - - - -
29/02:30am 12.1 W 38 45 1013.4 - 1.8 - - - - - - -
29/02:00am 11.9 W 36 45 1013.4 - 1.8 - - - - - - -
29/01:30am 11.6 W 40 47 1013.1 - 1.8 - - - - - - -
29/01:00am 12.1 W 37 42 1013.0 - 1.8 - - - - - - -
29/12:30am 12.2 W 35 40 1013.1 - 1.8 - - - - - - -
29/12:00am 11.7 W 29 35 1013.3 - 1.8 - - - - - - -
 
Date/Time
EST
Temp

°C
Wind Pressure Rain
since 9am
mm
Weather Cloud Vis
km
Sea
Height
m
Swell
Dir
 
Speed
knots
Gust
knots
hPa Trend Height
m
Period
s
Dir
28/11:30pm 11.4 W 33 38 1013.4 - 1.8 - - - - - - -
28/11:00pm 11.4 W 31 37 1013.7 - 1.8 - - - - - - -
28/10:30pm 12.1 W 29 34 1013.4 - 1.4 - - - - - - -
28/10:00pm 11.7 W 29 35 1013.4 - 1.4 - - - - - - -
28/09:30pm 12.2 W 27 31 1013.5 - 1.2 - - - - - - -
28/09:00pm 12.9 W 26 29 1013.2 - 1.2 - - - - - - -
28/08:30pm 13.1 W 29 34 1012.7 - 1.2 - - - - - - -
28/08:00pm 12.8 W 27 32 1012.9 - 1.2 - - - - - - -
28/07:30pm 13.2 WNW 33 40 1012.2 - 0.6 - - - - - - -
28/07:08pm 13.9 WNW 37 49 1011.2 - 0.0 - - - - - - -
28/07:07pm 14.3 WNW 34 41 1011.5 - 0.0 - - - - - - -
28/07:05pm 15.1 WNW 23 36 1011.8 - 0.0 - - - - - - -
28/07:00pm 15.8 NW 19 27 1011.9 - 0.0 - - - - - - -
28/06:30pm 15.8 NW 19 23 1011.7 - 0.0 - - - - - - -
28/06:00pm 16.2 NW 23 28 1011.6 - 0.0 - - - - - - -
28/05:30pm 16.3 NW 26 31 1011.3 - 0.0 - - - - - - -
28/05:00pm 16.5 NW 28 34 1011.1 - 0.0 - - - - - - -
28/04:30pm 16.3 NW 24 28 1011.4 - 0.0 - - - - - - -
28/04:00pm 16.9 NW 26 31 1011.4 - 0.0 - - - - - - -
28/03:30pm 16.5 NW 24 29 1011.6 - 0.0 - - - - - - -
28/03:00pm 16.9 NW 25 28 1011.8 - 0.0 - - - - - - -
28/02:30pm 17.3 NW 17 25 1012.0 - 0.0 - - - - - - -
28/02:00pm 17.7 NW 16 19 1012.5 - 0.0 - - - - - - -
28/01:30pm 17.8 NNW 12 16 1013.1 - 0.0 - - - - - - -
28/01:00pm 16.5 NNW 18 23 1013.3 - 0.0 - - - - - - -
28/12:30pm 16.1 NNW 17 22 1013.7 - 0.0 - - - - - - -
28/12:00pm 16.5 N 15 20 1014.4 - 0.0 - - - - - - -
28/11:30am 15.9 NNW 17 22 1014.9 - 0.0 - - - - - - -
28/11:00am 15.1 NNW 17 23 1015.4 - 0.0 - - - - - - -
28/10:30am 15.1 NNW 18 23 1015.6 - 0.0 - - - - - - -
28/10:00am 14.8 NNW 19 24 1015.6 - 0.0 - - - - - - -
28/09:30am 14.7 NNW 20 26 1015.7 - 0.0 - - - - - - -
28/09:00am 14.7 NNW 20 25 1015.9 - 2.6 - - - - - - -

Other Formats:

Comma delimited format used in spreadsheet applications
http://www.bom.gov.au/fwo/IDT60701/IDT60701.94949.axf

JavaScript Object Notation format (JSON) in row-major order
http://www.bom.gov.au/fwo/IDT60701/IDT60701.94949.json